createdAt,value
2022-09-10T00:03:23.060Z,100726.03
2022-09-10T00:08:25.969Z,100728.41
2022-09-10T00:13:29.843Z,100734.31
2022-09-10T00:18:32.791Z,100730.22
2022-09-10T00:23:35.885Z,100735.44
2022-09-10T00:28:40.167Z,100731.94
2022-09-10T00:33:42.975Z,100733.75
2022-09-10T00:38:45.862Z,100739.22
2022-09-10T00:43:52.880Z,100728.13
2022-09-10T00:48:58.099Z,100728.97
2022-09-10T00:54:01.943Z,100733.63
2022-09-10T00:59:10.326Z,100723.50
2022-09-10T01:04:12.924Z,100726.28
2022-09-10T01:09:15.989Z,100707.88
2022-09-10T01:14:33.112Z,100720.22
2022-09-10T01:20:14.804Z,100701.94
2022-09-10T01:25:24.174Z,100700.97
2022-09-10T01:30:37.867Z,100700.97
2022-09-10T01:35:45.758Z,100699.84
2022-09-10T01:40:49.477Z,100703.66
2022-09-10T01:46:11.108Z,100709.97
2022-09-10T01:51:26.909Z,100711.25
2022-09-10T01:56:39.376Z,100716.28
2022-09-10T02:01:50.358Z,100712.50
2022-09-10T02:06:53.184Z,100706.03
2022-09-10T02:11:56.680Z,100709.56
2022-09-10T02:17:14.104Z,100715.88
2022-09-10T02:22:16.813Z,100705.16
2022-09-10T02:27:29.896Z,100706.72
2022-09-10T02:32:32.733Z,100704.91
2022-09-10T02:37:35.763Z,100704.03
2022-09-10T02:42:39.681Z,100661.72
2022-09-10T02:47:43.090Z,100710.94
2022-09-10T02:52:46.251Z,100705.03
2022-09-10T02:57:50.277Z,100705.03
2022-09-10T03:02:59.668Z,100706.28
2022-09-10T03:08:05.347Z,100705.59
2022-09-10T03:13:10.257Z,100699.94
2022-09-10T03:18:12.865Z,100699.56
2022-09-10T03:23:15.959Z,100700.50
2022-09-10T03:28:20.029Z,100700.25
2022-09-10T03:33:24.816Z,100694.34
2022-09-10T03:38:29.707Z,100694.22
2022-09-10T03:43:34.445Z,100690.84
2022-09-10T03:48:43.128Z,100690.97
2022-09-10T03:53:45.832Z,100695.34
2022-09-10T03:58:50.124Z,100693.09
2022-09-10T04:03:55.816Z,100691.41
2022-09-10T04:09:01.159Z,100697.44
2022-09-10T04:14:05.753Z,100687.31
2022-09-10T04:19:12.757Z,100693.78
2022-09-10T04:24:16.648Z,100683.94
2022-09-10T04:29:21.048Z,100686.06
2022-09-10T04:34:24.478Z,100694.22
2022-09-10T04:39:28.304Z,100692.66
2022-09-10T04:44:32.961Z,100703.66
2022-09-10T04:49:36.903Z,100711.38
2022-09-10T04:54:39.796Z,100712.09
2022-09-10T04:59:43.966Z,100710.13
2022-09-10T05:04:47.324Z,100710.53
2022-09-10T05:09:50.859Z,100722.66
2022-09-10T05:14:55.535Z,100713.50
2022-09-10T05:19:58.197Z,100716.44
2022-09-10T05:25:01.077Z,100720.97
2022-09-10T05:30:06.903Z,100715.06
2022-09-10T05:35:11.899Z,100726.16
2022-09-10T05:40:17.683Z,100735.84
2022-09-10T05:45:21.775Z,100730.53
2022-09-10T05:50:24.898Z,100729.00
2022-09-10T05:55:31.190Z,100723.34
2022-09-10T06:00:36.312Z,100734.34
2022-09-10T06:05:39.024Z,100739.09
2022-09-10T06:10:41.964Z,100737.00
2022-09-10T06:15:46.165Z,100739.94
2022-09-10T06:20:48.980Z,100745.28
2022-09-10T06:26:01.763Z,100749.78
2022-09-10T06:31:06.519Z,100755.56
2022-09-10T06:36:12.385Z,100750.78
2022-09-10T06:41:16.035Z,100753.03
2022-09-10T06:51:56.133Z,100759.09
2022-09-10T06:56:59.308Z,100762.16
2022-09-10T07:02:03.406Z,100764.84
2022-09-10T07:07:07.569Z,100768.09
2022-09-10T07:12:11.164Z,100782.03
2022-09-10T07:17:17.651Z,100773.16
2022-09-10T07:22:20.272Z,100782.00
2022-09-10T07:27:24.410Z,100753.19
2022-09-10T07:32:29.511Z,100772.59
2022-09-10T07:37:41.454Z,100766.13
2022-09-10T07:42:45.360Z,100771.16
2022-09-10T07:47:49.947Z,100780.31
2022-09-10T07:52:52.956Z,100785.81
2022-09-10T07:58:00.078Z,100776.66
2022-09-10T08:03:06.143Z,100769.78
2022-09-10T08:08:10.423Z,100776.38
2022-09-10T08:13:13.633Z,100772.44
2022-09-10T08:18:17.651Z,100773.44
2022-09-10T08:23:20.997Z,100779.19
2022-09-10T08:28:27.143Z,100777.22
2022-09-10T08:33:32.400Z,100770.69
2022-09-10T08:38:38.556Z,100760.28
2022-09-10T08:43:49.632Z,100765.81
2022-09-10T08:49:02.189Z,100755.81
2022-09-10T08:54:13.024Z,100757.50
2022-09-10T08:59:22.294Z,100755.16
2022-09-10T09:04:33.190Z,100757.97
2022-09-10T09:09:38.422Z,100764.13
2022-09-10T09:14:52.741Z,100765.69
2022-09-10T09:20:06.668Z,100769.78
2022-09-10T09:25:24.055Z,100760.06
2022-09-10T09:30:31.911Z,100764.69
2022-09-10T09:35:40.127Z,100766.13
2022-09-10T09:40:48.017Z,100761.50
2022-09-10T09:45:53.270Z,100760.19
2022-09-10T09:51:00.200Z,100770.88
2022-09-10T09:56:07.056Z,100771.03
2022-09-10T10:01:16.453Z,100768.19
2022-09-10T10:06:23.659Z,100767.66
2022-09-10T10:11:42.928Z,100771.84
2022-09-10T10:16:48.333Z,100766.91
2022-09-10T10:21:54.376Z,100771.09
2022-09-10T10:26:57.013Z,100763.53
2022-09-10T10:32:05.457Z,100765.53
2022-09-10T10:37:16.944Z,100768.53
2022-09-10T10:42:25.904Z,100771.31
2022-09-10T10:47:45.477Z,100754.94
2022-09-10T10:53:09.306Z,100782.47
2022-09-10T10:58:35.110Z,100770.88
2022-09-10T11:03:44.145Z,100779.69
2022-09-10T11:08:52.914Z,100767.66
2022-09-10T11:13:59.737Z,100772.50
2022-09-10T11:19:06.712Z,100765.44
2022-09-10T11:24:17.270Z,100771.97
2022-09-10T11:29:33.343Z,100773.88
2022-09-10T11:34:47.611Z,100774.47
2022-09-10T11:39:56.962Z,100774.25
2022-09-10T11:45:08.200Z,100776.25
2022-09-10T11:50:34.733Z,100782.91
2022-09-10T11:56:00.030Z,100777.25
2022-09-10T12:01:11.699Z,100782.38
2022-09-10T12:06:18.823Z,100775.09
2022-09-10T12:11:31.669Z,100776.19
2022-09-10T12:16:39.736Z,100767.50
2022-09-10T12:21:49.559Z,100770.50
2022-09-10T12:26:55.334Z,100759.38
2022-09-10T12:32:32.136Z,100760.28
2022-09-10T12:37:34.721Z,100768.88
2022-09-10T12:42:39.592Z,100767.19
2022-09-10T12:47:46.639Z,100780.16
2022-09-10T12:53:03.311Z,100772.31
2022-09-10T12:58:17.824Z,100790.50
2022-09-10T13:03:22.044Z,100792.41
2022-09-10T13:08:28.887Z,100784.28
2022-09-10T13:13:38.451Z,100795.00
2022-09-10T13:18:41.793Z,100792.41
2022-09-10T13:23:48.571Z,100804.38
2022-09-10T13:29:09.076Z,100808.19
2022-09-10T13:35:04.144Z,100807.81
2022-09-10T13:40:32.954Z,100798.91
2022-09-10T13:45:39.520Z,100806.41
2022-09-10T13:50:50.734Z,100820.31
2022-09-10T13:55:58.784Z,100825.13
2022-09-10T14:01:05.108Z,100807.88
2022-09-10T14:06:09.578Z,100820.22
2022-09-10T14:11:20.008Z,100818.47
2022-09-10T14:16:30.333Z,100827.97
2022-09-10T14:21:33.393Z,100834.66
2022-09-10T14:26:36.496Z,100831.97
2022-09-10T14:31:40.637Z,100836.03
2022-09-10T14:36:43.845Z,100847.06
2022-09-10T14:41:47.356Z,100851.63
2022-09-10T14:46:54.070Z,100843.41
2022-09-10T14:51:59.130Z,100854.97
2022-09-10T14:57:03.716Z,100865.63
2022-09-10T15:02:16.196Z,100869.84
2022-09-10T15:07:18.888Z,100869.22
2022-09-10T15:12:24.796Z,100868.84
2022-09-10T15:17:29.360Z,100881.00
2022-09-10T15:22:32.281Z,100876.63
2022-09-10T15:27:34.857Z,100903.03
2022-09-10T15:32:38.724Z,100898.13
2022-09-10T15:37:41.749Z,100899.75
2022-09-10T15:42:44.291Z,100902.31
2022-09-10T15:47:48.169Z,100905.59
2022-09-10T15:52:50.706Z,100904.31
2022-09-10T15:57:53.777Z,100909.69
2022-09-10T16:02:57.699Z,100909.84
2022-09-10T16:08:00.343Z,100917.91
2022-09-10T16:13:02.973Z,100922.50
2022-09-10T16:18:07.627Z,100930.72
2022-09-10T16:23:10.679Z,100937.47
2022-09-10T16:28:13.320Z,100941.72
2022-09-10T16:33:17.288Z,100946.50
2022-09-10T16:38:19.860Z,100957.69
2022-09-10T16:43:22.664Z,100965.09
2022-09-10T16:48:26.715Z,100968.78
2022-09-10T16:53:30.029Z,100971.22
2022-09-10T16:58:36.089Z,100975.84
2022-09-10T17:03:42.685Z,100964.84
2022-09-10T17:08:45.760Z,100970.94
2022-09-10T17:13:48.362Z,100979.44
2022-09-10T17:18:57.728Z,100979.63
2022-09-10T17:24:01.220Z,100996.09
2022-09-10T17:29:06.363Z,101004.75
2022-09-10T17:34:12.258Z,101007.88
2022-09-10T17:39:15.864Z,101001.53
2022-09-10T17:44:18.564Z,101015.22
2022-09-10T17:49:22.585Z,101016.63
2022-09-10T17:54:25.184Z,100940.88
2022-09-10T17:59:27.772Z,101034.00
2022-09-10T18:04:31.812Z,101036.44
2022-09-10T18:09:34.560Z,100952.06
2022-09-10T18:14:38.385Z,101058.75
2022-09-10T18:19:42.679Z,101079.59
2022-09-10T18:24:45.424Z,101060.44
2022-09-10T18:29:48.003Z,101097.78
2022-09-10T18:34:51.901Z,101109.50
2022-09-10T18:39:54.552Z,101081.75
2022-09-10T18:44:57.207Z,101123.03
2022-09-10T18:50:01.902Z,101129.81
2022-09-10T18:55:05.499Z,101141.66
2022-09-10T19:00:09.506Z,101141.38
2022-09-10T19:05:13.988Z,101147.03
2022-09-10T19:10:17.046Z,101162.41
2022-09-10T19:15:22.694Z,101167.91
2022-09-10T19:20:27.817Z,101168.47
2022-09-10T19:25:30.843Z,101094.66
2022-09-10T19:30:38.281Z,101182.28
2022-09-10T19:35:42.201Z,101181.69
2022-09-10T19:40:44.764Z,101182.56
2022-09-10T19:45:47.536Z,101192.41
2022-09-10T19:50:51.981Z,101193.28
2022-09-10T19:55:55.008Z,101205.56
2022-09-10T20:00:57.582Z,101207.66
2022-09-10T20:06:01.617Z,101201.19
2022-09-10T20:11:05.857Z,101210.78
2022-09-10T20:16:10.051Z,101210.34
2022-09-10T20:21:17.043Z,101178.16
2022-09-10T20:26:22.401Z,101214.00
2022-09-10T20:31:26.996Z,101212.59
2022-09-10T20:36:31.909Z,101213.44
2022-09-10T20:41:34.532Z,101225.44
2022-09-10T20:46:37.845Z,101226.72
2022-09-10T20:51:42.134Z,101236.97
2022-09-10T20:56:45.495Z,101245.28
2022-09-10T21:01:50.603Z,101239.06
2022-09-10T21:06:55.075Z,101257.28
2022-09-10T21:11:57.678Z,101252.34
2022-09-10T21:17:01.082Z,101247.56
2022-09-10T21:22:05.145Z,101247.84
2022-09-10T21:27:07.712Z,101258.56
2022-09-10T21:32:10.911Z,101268.59
2022-09-10T21:37:14.808Z,101272.78
2022-09-10T21:42:17.363Z,101270.66
2022-09-10T21:47:20.051Z,101267.22
2022-09-10T21:52:23.996Z,101276.66
2022-09-10T21:57:27.126Z,101284.91
2022-09-10T22:02:31.418Z,101295.59
2022-09-10T22:07:35.383Z,101303.66
2022-09-10T22:12:38.367Z,101305.75
2022-09-10T22:17:41.279Z,101310.00
2022-09-10T22:22:45.194Z,101304.66
2022-09-10T22:27:49.362Z,101312.09
2022-09-10T22:32:51.931Z,101318.44
2022-09-10T22:37:57.003Z,101319.63
2022-09-10T22:42:59.861Z,101311.69
2022-09-10T22:48:02.852Z,101315.63
2022-09-10T22:53:06.742Z,101309.06
2022-09-10T22:58:10.047Z,101320.06
2022-09-10T23:03:13.211Z,101330.84
2022-09-10T23:08:17.426Z,101339.16
2022-09-10T23:13:20.873Z,101332.19
2022-09-10T23:18:23.439Z,101333.69
2022-09-10T23:23:27.455Z,101338.59
2022-09-10T23:28:30.000Z,101337.91
2022-09-10T23:33:32.551Z,101337.16
2022-09-10T23:38:37.118Z,101307.09
2022-09-10T23:43:41.072Z,101337.91
2022-09-10T23:48:44.612Z,101340.97
2022-09-10T23:53:49.227Z,101347.31
2022-09-10T23:58:52.128Z,101348.47
